sensor_id;sensor_type;location;lat;lon;timestamp;pressure;altitude;pressure_sealevel;temperature;humidity
55373;BME280;41249;47.838;16.490;2023-04-04T00:00:24;99939.16;;;-4.63;47.87
55373;BME280;41249;47.838;16.490;2023-04-04T00:02:50;99936.19;;;-4.66;48.32
55373;BME280;41249;47.838;16.490;2023-04-04T00:05:17;99936.69;;;-4.64;47.78
55373;BME280;41249;47.838;16.490;2023-04-04T00:07:47;99938.91;;;-4.66;48.51
55373;BME280;41249;47.838;16.490;2023-04-04T00:10:14;99933.47;;;-4.66;47.50
55373;BME280;41249;47.838;16.490;2023-04-04T00:12:41;99942.97;;;-4.69;47.95
55373;BME280;41249;47.838;16.490;2023-04-04T00:15:09;99935.09;;;-4.65;48.51
55373;BME280;41249;47.838;16.490;2023-04-04T00:17:35;99933.47;;;-4.66;48.26
55373;BME280;41249;47.838;16.490;2023-04-04T00:20:02;99934.59;;;-4.72;49.43
55373;BME280;41249;47.838;16.490;2023-04-04T00:22:30;99938.41;;;-4.73;48.01
55373;BME280;41249;47.838;16.490;2023-04-04T00:24:57;99937.25;;;-4.67;48.89
55373;BME280;41249;47.838;16.490;2023-04-04T00:27:24;99948.34;;;-4.64;48.49
55373;BME280;41249;47.838;16.490;2023-04-04T00:29:51;99939.94;;;-4.62;48.88
55373;BME280;41249;47.838;16.490;2023-04-04T00:32:18;99930.25;;;-4.68;49.40
55373;BME280;41249;47.838;16.490;2023-04-04T00:34:44;99937.81;;;-4.65;50.39
55373;BME280;41249;47.838;16.490;2023-04-04T00:37:11;99935.66;;;-4.68;49.84
55373;BME280;41249;47.838;16.490;2023-04-04T00:39:38;99949.47;;;-4.70;47.67
55373;BME280;41249;47.838;16.490;2023-04-04T00:42:05;99935.38;;;-4.67;49.67
55373;BME280;41249;47.838;16.490;2023-04-04T00:44:32;99938.41;;;-4.73;49.97
55373;BME280;41249;47.838;16.490;2023-04-04T00:47:01;99937.38;;;-4.82;49.32
55373;BME280;41249;47.838;16.490;2023-04-04T00:49:29;99952.25;;;-4.80;49.21
55373;BME280;41249;47.838;16.490;2023-04-04T00:51:56;99941.66;;;-4.76;49.42
55373;BME280;41249;47.838;16.490;2023-04-04T00:54:23;99949.25;;;-4.73;50.21
55373;BME280;41249;47.838;16.490;2023-04-04T00:56:50;99954.72;;;-4.83;50.36
55373;BME280;41249;47.838;16.490;2023-04-04T00:59:21;99950.31;;;-4.74;50.90
55373;BME280;41249;47.838;16.490;2023-04-04T01:01:49;99953.53;;;-4.72;49.98
55373;BME280;41249;47.838;16.490;2023-04-04T01:04:16;99947.88;;;-4.71;50.01
55373;BME280;41249;47.838;16.490;2023-04-04T01:06:43;99946.78;;;-4.75;49.99
55373;BME280;41249;47.838;16.490;2023-04-04T01:09:11;99938.97;;;-4.76;50.33
55373;BME280;41249;47.838;16.490;2023-04-04T01:11:38;99936.00;;;-4.80;50.69
55373;BME280;41249;47.838;16.490;2023-04-04T01:14:05;99948.22;;;-4.87;50.33
55373;BME280;41249;47.838;16.490;2023-04-04T01:16:32;99945.84;;;-4.94;50.68
55373;BME280;41249;47.838;16.490;2023-04-04T01:18:58;99943.94;;;-4.93;50.69
55373;BME280;41249;47.838;16.490;2023-04-04T01:21:26;99934.81;;;-5.03;48.50
55373;BME280;41249;47.838;16.490;2023-04-04T01:24:02;99939.66;;;-5.05;51.05
55373;BME280;41249;47.838;16.490;2023-04-04T01:26:30;99928.06;;;-5.05;50.86
55373;BME280;41249;47.838;16.490;2023-04-04T01:28:57;99931.53;;;-5.05;51.13
55373;BME280;41249;47.838;16.490;2023-04-04T01:31:27;99942.38;;;-5.05;49.59
55373;BME280;41249;47.838;16.490;2023-04-04T01:34:04;99926.44;;;-5.11;49.65
55373;BME280;41249;47.838;16.490;2023-04-04T01:36:42;99938.09;;;-5.11;51.24
55373;BME280;41249;47.838;16.490;2023-04-04T01:42:06;99928.31;;;-5.07;49.70
55373;BME280;41249;47.838;16.490;2023-04-04T01:44:33;99919.69;;;-5.14;49.39
55373;BME280;41249;47.838;16.490;2023-04-04T01:47:01;99935.66;;;-5.12;49.69
55373;BME280;41249;47.838;16.490;2023-04-04T01:49:30;99926.19;;;-5.15;50.59
55373;BME280;41249;47.838;16.490;2023-04-04T01:51:57;99932.41;;;-5.14;49.82
55373;BME280;41249;47.838;16.490;2023-04-04T01:54:24;99924.34;;;-5.24;50.59
55373;BME280;41249;47.838;16.490;2023-04-04T01:56:51;99910.78;;;-5.19;50.34
55373;BME280;41249;47.838;16.490;2023-04-04T01:59:18;99906.72;;;-5.17;50.38
55373;BME280;41249;47.838;16.490;2023-04-04T02:01:47;99909.72;;;-5.18;51.10
55373;BME280;41249;47.838;16.490;2023-04-04T02:04:14;99905.13;;;-5.18;50.66
55373;BME280;41249;47.838;16.490;2023-04-04T02:06:40;99904.25;;;-5.08;51.19
55373;BME280;41249;47.838;16.490;2023-04-04T02:09:07;99910.22;;;-5.11;50.29
55373;BME280;41249;47.838;16.490;2023-04-04T02:11:34;99904.31;;;-5.18;50.80
55373;BME280;41249;47.838;16.490;2023-04-04T02:14:01;99898.38;;;-5.20;51.64
55373;BME280;41249;47.838;16.490;2023-04-04T02:16:27;99893.22;;;-5.22;50.53
55373;BME280;41249;47.838;16.490;2023-04-04T02:18:54;99894.88;;;-5.26;51.26
55373;BME280;41249;47.838;16.490;2023-04-04T02:21:21;99898.63;;;-5.22;51.63
55373;BME280;41249;47.838;16.490;2023-04-04T02:23:47;99894.31;;;-5.23;51.56
55373;BME280;41249;47.838;16.490;2023-04-04T02:26:14;99887.81;;;-5.27;51.05
55373;BME280;41249;47.838;16.490;2023-04-04T02:28:41;99888.38;;;-5.30;51.43
55373;BME280;41249;47.838;16.490;2023-04-04T02:31:07;99891.91;;;-5.29;51.15
55373;BME280;41249;47.838;16.490;2023-04-04T02:33:34;99885.94;;;-5.26;51.54
55373;BME280;41249;47.838;16.490;2023-04-04T02:36:00;99880.56;;;-5.31;51.81
55373;BME280;41249;47.838;16.490;2023-04-04T02:38:27;99895.44;;;-5.34;51.98
55373;BME280;41249;47.838;16.490;2023-04-04T02:40:54;99889.78;;;-5.37;51.55
55373;BME280;41249;47.838;16.490;2023-04-04T02:43:20;99892.25;;;-5.41;51.94
55373;BME280;41249;47.838;16.490;2023-04-04T02:45:47;99879.25;;;-5.39;52.08
55373;BME280;41249;47.838;16.490;2023-04-04T02:48:14;99877.03;;;-5.32;51.18
55373;BME280;41249;47.838;16.490;2023-04-04T02:50:41;99879.47;;;-5.30;51.57
55373;BME280;41249;47.838;16.490;2023-04-04T02:53:09;99875.69;;;-5.34;51.35
55373;BME280;41249;47.838;16.490;2023-04-04T02:55:35;99875.66;;;-5.29;51.80
55373;BME280;41249;47.838;16.490;2023-04-04T02:58:02;99884.03;;;-5.26;51.38
55373;BME280;41249;47.838;16.490;2023-04-04T03:00:29;99871.00;;;-5.19;51.69
55373;BME280;41249;47.838;16.490;2023-04-04T03:02:56;99859.91;;;-5.22;51.21
55373;BME280;41249;47.838;16.490;2023-04-04T03:05:24;99859.91;;;-5.22;51.53
55373;BME280;41249;47.838;16.490;2023-04-04T03:07:53;99859.63;;;-5.16;51.59
55373;BME280;41249;47.838;16.490;2023-04-04T03:10:25;99847.66;;;-5.10;51.45
55373;BME280;41249;47.838;16.490;2023-04-04T03:12:52;99860.94;;;-5.08;51.46
55373;BME280;41249;47.838;16.490;2023-04-04T03:15:19;99840.31;;;-5.04;51.27
55373;BME280;41249;47.838;16.490;2023-04-04T03:17:47;99841.63;;;-4.96;50.84
55373;BME280;41249;47.838;16.490;2023-04-04T03:20:14;99835.66;;;-4.93;50.66
55373;BME280;41249;47.838;16.490;2023-04-04T03:22:41;99827.22;;;-4.92;50.15
55373;BME280;41249;47.838;16.490;2023-04-04T03:25:08;99833.97;;;-4.89;51.13
55373;BME280;41249;47.838;16.490;2023-04-04T03:27:35;99827.22;;;-4.92;50.84
55373;BME280;41249;47.838;16.490;2023-04-04T03:30:02;99823.72;;;-4.92;50.02
55373;BME280;41249;47.838;16.490;2023-04-04T03:32:29;99822.38;;;-4.95;51.11
55373;BME280;41249;47.838;16.490;2023-04-04T03:34:55;99821.09;;;-5.03;50.87
55373;BME280;41249;47.838;16.490;2023-04-04T03:37:22;99831.44;;;-5.10;51.15
55373;BME280;41249;47.838;16.490;2023-04-04T03:39:49;99823.09;;;-5.18;51.26
55373;BME280;41249;47.838;16.490;2023-04-04T03:42:16;99815.28;;;-5.25;51.92
55373;BME280;41249;47.838;16.490;2023-04-04T03:44:42;99833.47;;;-5.30;51.22
55373;BME280;41249;47.838;16.490;2023-04-04T03:47:09;99816.97;;;-5.34;52.17
55373;BME280;41249;47.838;16.490;2023-04-04T03:49:35;99812.38;;;-5.33;51.67
55373;BME280;41249;47.838;16.490;2023-04-04T03:52:02;99814.88;;;-5.42;52.27
55373;BME280;41249;47.838;16.490;2023-04-04T03:54:29;99811.13;;;-5.51;52.59
55373;BME280;41249;47.838;16.490;2023-04-04T03:56:56;99820.09;;;-5.55;52.87
55373;BME280;41249;47.838;16.490;2023-04-04T03:59:23;99811.13;;;-5.51;53.18
55373;BME280;41249;47.838;16.490;2023-04-04T04:01:50;99811.16;;;-5.56;52.99
55373;BME280;41249;47.838;16.490;2023-04-04T04:04:17;99809.31;;;-5.60;53.03
55373;BME280;41249;47.838;16.490;2023-04-04T04:06:44;99814.91;;;-5.52;54.02
55373;BME280;41249;47.838;16.490;2023-04-04T04:09:10;99812.81;;;-5.55;53.71
55373;BME280;41249;47.838;16.490;2023-04-04T04:11:37;99817.97;;;-5.63;53.38
55373;BME280;41249;47.838;16.490;2023-04-04T04:14:04;99813.34;;;-5.58;54.69
55373;BME280;41249;47.838;16.490;2023-04-04T04:16:31;99823.31;;;-5.48;56.40
55373;BME280;41249;47.838;16.490;2023-04-04T04:18:58;99835.47;;;-5.46;56.23
55373;BME280;41249;47.838;16.490;2023-04-04T04:21:25;99830.41;;;-5.57;57.00
55373;BME280;41249;47.838;16.490;2023-04-04T04:23:51;99827.97;;;-5.64;54.46
55373;BME280;41249;47.838;16.490;2023-04-04T04:26:18;99842.34;;;-5.69;56.26
55373;BME280;41249;47.838;16.490;2023-04-04T04:28:44;99820.38;;;-5.62;57.57
55373;BME280;41249;47.838;16.490;2023-04-04T04:31:13;99839.03;;;-5.55;57.10
55373;BME280;41249;47.838;16.490;2023-04-04T04:33:40;99843.66;;;-5.61;55.77
55373;BME280;41249;47.838;16.490;2023-04-04T04:36:07;99840.69;;;-5.65;55.27
55373;BME280;41249;47.838;16.490;2023-04-04T04:38:34;99852.88;;;-5.67;54.56
55373;BME280;41249;47.838;16.490;2023-04-04T04:41:00;99838.53;;;-5.62;56.58
55373;BME280;41249;47.838;16.490;2023-04-04T04:43:27;99844.72;;;-5.62;54.28
55373;BME280;41249;47.838;16.490;2023-04-04T04:45:54;99846.34;;;-5.61;54.74
55373;BME280;41249;47.838;16.490;2023-04-04T04:48:21;99843.91;;;-5.52;56.04
55373;BME280;41249;47.838;16.490;2023-04-04T04:50:47;99844.38;;;-5.45;56.64
55373;BME280;41249;47.838;16.490;2023-04-04T04:53:14;99845.06;;;-5.25;57.22
55373;BME280;41249;47.838;16.490;2023-04-04T04:55:41;99843.53;;;-5.36;55.66
55373;BME280;41249;47.838;16.490;2023-04-04T04:58:08;99841.34;;;-5.34;56.48
55373;BME280;41249;47.838;16.490;2023-04-04T05:00:37;99846.13;;;-5.21;56.64
55373;BME280;41249;47.838;16.490;2023-04-04T05:03:04;99852.13;;;-5.29;54.15
55373;BME280;41249;47.838;16.490;2023-04-04T05:05:33;99859.97;;;-5.32;55.12
55373;BME280;41249;47.838;16.490;2023-04-04T05:08:01;99862.63;;;-5.22;53.77
55373;BME280;41249;47.838;16.490;2023-04-04T05:10:28;99869.31;;;-5.10;55.56
55373;BME280;41249;47.838;16.490;2023-04-04T05:12:56;99867.03;;;-4.92;57.76
55373;BME280;41249;47.838;16.490;2023-04-04T05:15:23;99878.31;;;-4.75;58.37
55373;BME280;41249;47.838;16.490;2023-04-04T05:17:51;99877.88;;;-4.59;59.33
55373;BME280;41249;47.838;16.490;2023-04-04T05:20:18;99874.22;;;-4.73;54.62
55373;BME280;41249;47.838;16.490;2023-04-04T05:22:44;99877.84;;;-4.92;52.14
55373;BME280;41249;47.838;16.490;2023-04-04T05:25:12;99880.19;;;-4.76;54.70
55373;BME280;41249;47.838;16.490;2023-04-04T05:27:39;99890.22;;;-4.76;50.98
55373;BME280;41249;47.838;16.490;2023-04-04T05:30:07;99884.53;;;-4.80;52.55
55373;BME280;41249;47.838;16.490;2023-04-04T05:32:34;99883.94;;;-4.72;51.51
55373;BME280;41249;47.838;16.490;2023-04-04T05:35:01;99897.69;;;-4.63;51.92
55373;BME280;41249;47.838;16.490;2023-04-04T05:37:28;99880.25;;;-4.52;51.95
55373;BME280;41249;47.838;16.490;2023-04-04T05:39:54;99905.06;;;-4.40;53.80
55373;BME280;41249;47.838;16.490;2023-04-04T05:42:21;99895.59;;;-4.43;52.91
55373;BME280;41249;47.838;16.490;2023-04-04T05:44:48;99894.44;;;-4.31;52.18
55373;BME280;41249;47.838;16.490;2023-04-04T05:47:15;99900.66;;;-4.02;55.28
55373;BME280;41249;47.838;16.490;2023-04-04T05:49:42;99892.88;;;-4.09;51.57
55373;BME280;41249;47.838;16.490;2023-04-04T05:52:08;99905.97;;;-4.16;50.39
55373;BME280;41249;47.838;16.490;2023-04-04T05:54:36;99902.34;;;-4.06;48.52
55373;BME280;41249;47.838;16.490;2023-04-04T05:57:02;99910.13;;;-4.00;47.64
55373;BME280;41249;47.838;16.490;2023-04-04T05:59:29;99906.31;;;-3.99;47.39
55373;BME280;41249;47.838;16.490;2023-04-04T06:01:56;99904.47;;;-3.80;49.40
55373;BME280;41249;47.838;16.490;2023-04-04T06:04:22;99904.94;;;-3.73;49.45
55373;BME280;41249;47.838;16.490;2023-04-04T06:06:49;99896.16;;;-3.64;47.83
55373;BME280;41249;47.838;16.490;2023-04-04T06:09:17;99881.72;;;-3.60;48.00
55373;BME280;41249;47.838;16.490;2023-04-04T06:11:43;99895.34;;;-3.41;49.51
55373;BME280;41249;47.838;16.490;2023-04-04T06:14:10;99898.00;;;-3.36;49.67
55373;BME280;41249;47.838;16.490;2023-04-04T06:16:40;99890.94;;;-3.37;48.55
55373;BME280;41249;47.838;16.490;2023-04-04T06:19:07;99912.78;;;-3.47;46.51
55373;BME280;41249;47.838;16.490;2023-04-04T06:21:33;99894.22;;;-3.59;46.95
55373;BME280;41249;47.838;16.490;2023-04-04T06:24:00;99897.19;;;-3.37;47.74
55373;BME280;41249;47.838;16.490;2023-04-04T06:26:26;99896.09;;;-3.36;46.48
55373;BME280;41249;47.838;16.490;2023-04-04T06:28:53;99902.50;;;-3.50;46.11
55373;BME280;41249;47.838;16.490;2023-04-04T06:31:21;99903.56;;;-3.28;46.67
55373;BME280;41249;47.838;16.490;2023-04-04T06:33:47;99879.59;;;-3.21;45.74
55373;BME280;41249;47.838;16.490;2023-04-04T06:36:14;99885.25;;;-3.17;45.51
55373;BME280;41249;47.838;16.490;2023-04-04T06:38:41;99896.19;;;-3.03;45.55
55373;BME280;41249;47.838;16.490;2023-04-04T06:41:07;99875.44;;;-3.13;44.65
55373;BME280;41249;47.838;16.490;2023-04-04T06:43:34;99891.63;;;-3.27;44.80
55373;BME280;41249;47.838;16.490;2023-04-04T06:46:00;99882.53;;;-2.80;46.25
55373;BME280;41249;47.838;16.490;2023-04-04T06:48:27;99890.00;;;-2.90;44.50
55373;BME280;41249;47.838;16.490;2023-04-04T06:50:54;99890.84;;;-3.09;46.85
55373;BME280;41249;47.838;16.490;2023-04-04T06:53:20;99894.34;;;-3.08;44.79
55373;BME280;41249;47.838;16.490;2023-04-04T06:55:49;99899.84;;;-3.32;45.68
55373;BME280;41249;47.838;16.490;2023-04-04T06:58:16;99895.09;;;-3.21;46.01
55373;BME280;41249;47.838;16.490;2023-04-04T07:00:43;99906.31;;;-3.09;45.31
55373;BME280;41249;47.838;16.490;2023-04-04T07:03:10;99902.22;;;-3.07;45.34
55373;BME280;41249;47.838;16.490;2023-04-04T07:05:37;99900.38;;;-2.92;44.99
55373;BME280;41249;47.838;16.490;2023-04-04T07:08:07;99914.47;;;-3.09;45.28
55373;BME280;41249;47.838;16.490;2023-04-04T07:10:34;99892.16;;;-3.06;45.84
55373;BME280;41249;47.838;16.490;2023-04-04T07:13:01;99906.84;;;-2.88;45.08
55373;BME280;41249;47.838;16.490;2023-04-04T07:15:27;99898.69;;;-2.88;45.25
55373;BME280;41249;47.838;16.490;2023-04-04T07:17:54;99903.66;;;-2.95;45.53
55373;BME280;41249;47.838;16.490;2023-04-04T07:20:21;99896.75;;;-2.88;43.27
55373;BME280;41249;47.838;16.490;2023-04-04T07:22:48;99904.91;;;-2.69;43.87
55373;BME280;41249;47.838;16.490;2023-04-04T07:25:14;99906.75;;;-2.32;43.75
55373;BME280;41249;47.838;16.490;2023-04-04T07:27:41;99914.44;;;-2.53;43.89
55373;BME280;41249;47.838;16.490;2023-04-04T07:30:08;99896.81;;;-2.56;44.11
55373;BME280;41249;47.838;16.490;2023-04-04T07:32:35;99910.75;;;-2.11;44.30
55373;BME280;41249;47.838;16.490;2023-04-04T07:35:06;99896.44;;;-2.03;43.29
55373;BME280;41249;47.838;16.490;2023-04-04T07:37:35;99900.56;;;-2.19;42.13
55373;BME280;41249;47.838;16.490;2023-04-04T07:40:05;99909.44;;;-2.00;42.23
55373;BME280;41249;47.838;16.490;2023-04-04T07:42:35;99917.91;;;-2.02;41.69
55373;BME280;41249;47.838;16.490;2023-04-04T07:45:01;99928.81;;;-2.02;42.29
55373;BME280;41249;47.838;16.490;2023-04-04T07:47:28;99918.06;;;-1.80;42.21
55373;BME280;41249;47.838;16.490;2023-04-04T07:49:54;99903.66;;;-1.66;42.12
55373;BME280;41249;47.838;16.490;2023-04-04T07:52:21;99905.88;;;-1.55;41.52
55373;BME280;41249;47.838;16.490;2023-04-04T07:54:48;99906.66;;;-1.27;40.65
55373;BME280;41249;47.838;16.490;2023-04-04T07:57:15;99922.78;;;-1.31;40.73
55373;BME280;41249;47.838;16.490;2023-04-04T07:59:42;99901.75;;;-0.89;43.86
55373;BME280;41249;47.838;16.490;2023-04-04T08:02:09;99924.38;;;-0.67;39.39
55373;BME280;41249;47.838;16.490;2023-04-04T08:04:35;99937.28;;;-1.08;41.14
55373;BME280;41249;47.838;16.490;2023-04-04T08:07:02;99913.41;;;-1.25;41.29
55373;BME280;41249;47.838;16.490;2023-04-04T08:09:29;99922.00;;;-1.45;39.71
55373;BME280;41249;47.838;16.490;2023-04-04T08:11:59;99927.25;;;-1.35;39.86
55373;BME280;41249;47.838;16.490;2023-04-04T08:14:29;99911.41;;;-1.60;40.16
55373;BME280;41249;47.838;16.490;2023-04-04T08:16:56;99919.56;;;-1.19;38.88
55373;BME280;41249;47.838;16.490;2023-04-04T08:19:23;99888.13;;;-0.89;40.32
55373;BME280;41249;47.838;16.490;2023-04-04T08:21:50;99919.66;;;-0.75;38.55
55373;BME280;41249;47.838;16.490;2023-04-04T08:24:17;99904.81;;;-1.18;38.27
55373;BME280;41249;47.838;16.490;2023-04-04T08:26:44;99916.91;;;-1.11;38.41
55373;BME280;41249;47.838;16.490;2023-04-04T08:29:23;99923.00;;;-1.41;38.42
55373;BME280;41249;47.838;16.490;2023-04-04T08:31:50;99891.56;;;-0.97;38.48
55373;BME280;41249;47.838;16.490;2023-04-04T08:34:16;99887.81;;;-0.44;39.09
55373;BME280;41249;47.838;16.490;2023-04-04T08:36:43;99874.38;;;-0.84;38.39
55373;BME280;41249;47.838;16.490;2023-04-04T08:39:09;99887.06;;;-1.16;37.17
55373;BME280;41249;47.838;16.490;2023-04-04T08:41:37;99876.41;;;-0.68;38.51
55373;BME280;41249;47.838;16.490;2023-04-04T08:44:06;99898.00;;;-0.58;36.71
55373;BME280;41249;47.838;16.490;2023-04-04T08:46:34;99867.13;;;-0.89;36.97
55373;BME280;41249;47.838;16.490;2023-04-04T08:49:01;99858.44;;;-0.69;36.80
55373;BME280;41249;47.838;16.490;2023-04-04T08:51:31;99865.69;;;0.11;37.89
55373;BME280;41249;47.838;16.490;2023-04-04T08:54:01;99867.13;;;-0.67;34.82
55373;BME280;41249;47.838;16.490;2023-04-04T08:56:28;99850.63;;;-0.39;35.18
55373;BME280;41249;47.838;16.490;2023-04-04T08:58:55;99856.69;;;0.10;36.70
55373;BME280;41249;47.838;16.490;2023-04-04T09:01:23;99859.13;;;0.20;35.26
55373;BME280;41249;47.838;16.490;2023-04-04T09:03:50;99842.09;;;0.23;35.46
55373;BME280;41249;47.838;16.490;2023-04-04T09:06:22;99846.94;;;0.92;37.30
55373;BME280;41249;47.838;16.490;2023-04-04T09:08:49;99848.72;;;0.88;37.12
55373;BME280;41249;47.838;16.490;2023-04-04T09:11:21;99856.03;;;0.53;35.74
55373;BME280;41249;47.838;16.490;2023-04-04T09:13:49;99863.03;;;-0.03;35.89
55373;BME280;41249;47.838;16.490;2023-04-04T09:16:17;99867.78;;;-0.83;35.86
55373;BME280;41249;47.838;16.490;2023-04-04T09:18:44;99847.03;;;-0.93;37.29
55373;BME280;41249;47.838;16.490;2023-04-04T09:21:12;99851.16;;;-0.60;37.63
55373;BME280;41249;47.838;16.490;2023-04-04T09:23:39;99838.31;;;-0.59;35.96
55373;BME280;41249;47.838;16.490;2023-04-04T09:26:05;99840.16;;;-0.68;36.16
55373;BME280;41249;47.838;16.490;2023-04-04T09:28:33;99840.91;;;-0.76;37.30
55373;BME280;41249;47.838;16.490;2023-04-04T09:31:02;99832.47;;;-0.13;36.42
55373;BME280;41249;47.838;16.490;2023-04-04T09:33:32;99817.97;;;0.08;36.67
55373;BME280;41249;47.838;16.490;2023-04-04T09:36:07;99838.81;;;0.04;37.56
55373;BME280;41249;47.838;16.490;2023-04-04T09:38:39;99847.16;;;-0.31;37.19
55373;BME280;41249;47.838;16.490;2023-04-04T09:41:07;99854.59;;;-0.68;35.91
55373;BME280;41249;47.838;16.490;2023-04-04T09:43:38;99835.34;;;-0.49;35.83
55373;BME280;41249;47.838;16.490;2023-04-04T09:46:05;99839.75;;;-0.31;37.45
55373;BME280;41249;47.838;16.490;2023-04-04T09:48:34;99836.44;;;-0.50;34.82
55373;BME280;41249;47.838;16.490;2023-04-04T09:51:06;99847.13;;;-0.62;35.32
55373;BME280;41249;47.838;16.490;2023-04-04T09:53:34;99823.81;;;-0.68;36.48
55373;BME280;41249;47.838;16.490;2023-04-04T09:56:03;99843.38;;;0.17;34.47
55373;BME280;41249;47.838;16.490;2023-04-04T09:58:29;99844.75;;;0.46;35.03
55373;BME280;41249;47.838;16.490;2023-04-04T10:01:07;99836.84;;;-0.04;34.12
55373;BME280;41249;47.838;16.490;2023-04-04T10:03:36;99845.22;;;-0.31;34.24
55373;BME280;41249;47.838;16.490;2023-04-04T10:06:06;99833.47;;;-0.40;34.31
55373;BME280;41249;47.838;16.490;2023-04-04T10:08:34;99826.59;;;-0.07;35.00
55373;BME280;41249;47.838;16.490;2023-04-04T10:11:04;99831.38;;;-0.04;34.83
55373;BME280;41249;47.838;16.490;2023-04-04T10:13:38;99840.56;;;-0.30;34.77
55373;BME280;41249;47.838;16.490;2023-04-04T10:16:08;99827.91;;;-0.26;35.80
55373;BME280;41249;47.838;16.490;2023-04-04T10:18:36;99827.94;;;0.13;33.94
55373;BME280;41249;47.838;16.490;2023-04-04T10:21:05;99819.41;;;0.06;32.31
55373;BME280;41249;47.838;16.490;2023-04-04T10:23:35;99806.47;;;-0.11;34.07
55373;BME280;41249;47.838;16.490;2023-04-04T10:26:02;99804.19;;;0.13;34.46
55373;BME280;41249;47.838;16.490;2023-04-04T10:28:29;99802.06;;;0.84;34.32
55373;BME280;41249;47.838;16.490;2023-04-04T10:31:24;99808.31;;;0.76;33.31
55373;BME280;41249;47.838;16.490;2023-04-04T10:34:42;99790.31;;;0.66;32.62
55373;BME280;41249;47.838;16.490;2023-04-04T10:36:48;99800.94;;;0.94;35.54
55373;BME280;41249;47.838;16.490;2023-04-04T10:39:25;99796.94;;;0.91;33.55
55373;BME280;41249;47.838;16.490;2023-04-04T10:41:54;99787.44;;;0.06;33.05
55373;BME280;41249;47.838;16.490;2023-04-04T10:44:29;99789.69;;;0.04;34.10
55373;BME280;41249;47.838;16.490;2023-04-04T10:47:06;99792.94;;;0.23;33.25
55373;BME280;41249;47.838;16.490;2023-04-04T10:49:34;99780.28;;;0.28;33.74
55373;BME280;41249;47.838;16.490;2023-04-04T10:52:03;99789.78;;;0.39;32.92
55373;BME280;41249;47.838;16.490;2023-04-04T10:57:12;99781.34;;;1.00;33.57
55373;BME280;41249;47.838;16.490;2023-04-04T11:00:00;99767.31;;;0.59;33.06
55373;BME280;41249;47.838;16.490;2023-04-04T11:02:47;99766.69;;;0.79;32.93
55373;BME280;41249;47.838;16.490;2023-04-04T11:05:33;99742.59;;;0.55;32.93
55373;BME280;41249;47.838;16.490;2023-04-04T11:08:04;99739.53;;;0.65;33.48
55373;BME280;41249;47.838;16.490;2023-04-04T11:10:40;99740.81;;;1.02;32.86
55373;BME280;41249;47.838;16.490;2023-04-04T11:16:10;99741.28;;;0.36;32.28
55373;BME280;41249;47.838;16.490;2023-04-04T11:21:08;99726.66;;;0.66;30.87
55373;BME280;41249;47.838;16.490;2023-04-04T11:24:11;99749.00;;;0.68;31.30
55373;BME280;41249;47.838;16.490;2023-04-04T11:26:41;99721.34;;;0.69;33.22
55373;BME280;41249;47.838;16.490;2023-04-04T11:29:08;99725.88;;;0.65;32.02
55373;BME280;41249;47.838;16.490;2023-04-04T11:31:42;99719.91;;;0.38;32.56
55373;BME280;41249;47.838;16.490;2023-04-04T11:34:13;99700.94;;;0.50;33.53
55373;BME280;41249;47.838;16.490;2023-04-04T11:39:13;99704.00;;;0.40;33.81
55373;BME280;41249;47.838;16.490;2023-04-04T11:41:47;99704.16;;;0.52;34.73
55373;BME280;41249;47.838;16.490;2023-04-04T11:44:15;99676.50;;;0.79;33.60
55373;BME280;41249;47.838;16.490;2023-04-04T11:46:43;99693.25;;;0.95;33.59
55373;BME280;41249;47.838;16.490;2023-04-04T11:49:10;99684.88;;;0.74;32.31
55373;BME280;41249;47.838;16.490;2023-04-04T11:51:41;99687.94;;;0.47;33.27
55373;BME280;41249;47.838;16.490;2023-04-04T11:54:14;99701.75;;;0.42;33.07
55373;BME280;41249;47.838;16.490;2023-04-04T11:56:42;99678.00;;;0.51;33.63
55373;BME280;41249;47.838;16.490;2023-04-04T11:59:16;99686.81;;;0.65;33.69
55373;BME280;41249;47.838;16.490;2023-04-04T12:01:44;99682.31;;;0.35;32.89
55373;BME280;41249;47.838;16.490;2023-04-04T12:04:11;99679.56;;;0.95;33.87
55373;BME280;41249;47.838;16.490;2023-04-04T12:06:41;99661.91;;;0.58;32.68
55373;BME280;41249;47.838;16.490;2023-04-04T12:09:09;99655.94;;;0.90;31.71
55373;BME280;41249;47.838;16.490;2023-04-04T12:11:37;99661.59;;;0.85;32.60
55373;BME280;41249;47.838;16.490;2023-04-04T12:14:05;99663.50;;;0.84;32.93
55373;BME280;41249;47.838;16.490;2023-04-04T12:16:31;99649.34;;;0.91;32.30
55373;BME280;41249;47.838;16.490;2023-04-04T12:19:00;99640.44;;;1.20;33.02
55373;BME280;41249;47.838;16.490;2023-04-04T12:21:30;99646.63;;;1.37;32.22
55373;BME280;41249;47.838;16.490;2023-04-04T12:23:58;99642.19;;;1.54;31.89
55373;BME280;41249;47.838;16.490;2023-04-04T12:26:25;99641.78;;;1.72;32.86
55373;BME280;41249;47.838;16.490;2023-04-04T12:28:55;99637.16;;;1.64;31.28
55373;BME280;41249;47.838;16.490;2023-04-04T12:31:24;99629.56;;;1.70;31.31
55373;BME280;41249;47.838;16.490;2023-04-04T12:33:52;99637.03;;;2.10;33.98
55373;BME280;41249;47.838;16.490;2023-04-04T12:36:19;99640.38;;;2.16;30.82
55373;BME280;41249;47.838;16.490;2023-04-04T12:39:06;99636.91;;;2.07;30.34
55373;BME280;41249;47.838;16.490;2023-04-04T12:41:34;99637.88;;;1.82;29.59
55373;BME280;41249;47.838;16.490;2023-04-04T12:44:03;99623.91;;;1.75;32.16
55373;BME280;41249;47.838;16.490;2023-04-04T12:46:40;99615.66;;;2.45;34.21
55373;BME280;41249;47.838;16.490;2023-04-04T12:49:10;99641.69;;;2.31;31.54
55373;BME280;41249;47.838;16.490;2023-04-04T12:51:37;99614.22;;;2.93;34.98
55373;BME280;41249;47.838;16.490;2023-04-04T12:54:04;99641.78;;;3.20;32.09
55373;BME280;41249;47.838;16.490;2023-04-04T12:56:34;99637.38;;;2.09;30.12
55373;BME280;41249;47.838;16.490;2023-04-04T12:59:03;99653.19;;;2.03;30.86
55373;BME280;41249;47.838;16.490;2023-04-04T13:01:36;99663.31;;;1.82;30.41
55373;BME280;41249;47.838;16.490;2023-04-04T13:04:03;99629.66;;;1.82;31.60
55373;BME280;41249;47.838;16.490;2023-04-04T13:06:31;99635.69;;;1.96;31.38
55373;BME280;41249;47.838;16.490;2023-04-04T13:08:58;99623.72;;;2.21;32.28
55373;BME280;41249;47.838;16.490;2023-04-04T13:11:24;99619.19;;;2.04;31.64